createdAt,value
2023-04-19T00:02:19.696Z,6.35
2023-04-19T00:05:26.914Z,5.72
2023-04-19T00:08:33.297Z,5.65
2023-04-19T00:11:39.483Z,6.12
2023-04-19T00:14:45.582Z,5.95
2023-04-19T00:17:51.606Z,6.28
2023-04-19T00:20:57.185Z,6.40
2023-04-19T00:24:02.756Z,5.90
2023-04-19T00:27:07.368Z,6.65
2023-04-19T00:30:13.681Z,5.62
2023-04-19T00:33:21.097Z,6.60
2023-04-19T00:36:28.289Z,5.80
2023-04-19T00:39:32.828Z,5.70
2023-04-19T00:42:38.593Z,6.00
2023-04-19T00:45:43.288Z,5.25
2023-04-19T00:48:49.537Z,7.08
2023-04-19T00:51:56.121Z,6.05
2023-04-19T00:55:02.592Z,8.10
2023-04-19T00:58:02.762Z,6.40
2023-04-19T01:00:48.256Z,6.15
2023-04-19T01:03:42.864Z,6.35
2023-04-19T01:06:36.300Z,6.33
2023-04-19T01:09:42.617Z,5.45
2023-04-19T01:12:47.872Z,6.40
2023-04-19T01:15:53.854Z,6.03
2023-04-19T01:18:59.229Z,6.05
2023-04-19T01:22:05.323Z,5.97
2023-04-19T01:25:11.657Z,7.12
2023-04-19T01:28:16.763Z,6.35
2023-04-19T01:31:22.596Z,7.00
2023-04-19T01:34:21.763Z,6.40
2023-04-19T01:37:14.369Z,7.05
2023-04-19T01:40:13.690Z,8.13
2023-04-19T01:43:12.316Z,7.30
2023-04-19T01:46:17.989Z,6.30
2023-04-19T01:49:22.724Z,6.92
2023-04-19T01:52:28.324Z,5.45
2023-04-19T01:55:33.844Z,5.92
2023-04-19T01:58:39.552Z,5.85
2023-04-19T02:01:44.957Z,6.05
2023-04-19T02:04:51.323Z,6.22
2023-04-19T02:07:59.457Z,6.08
2023-04-19T02:11:05.691Z,5.85
2023-04-19T02:14:10.496Z,6.08
2023-04-19T02:17:15.889Z,6.58
2023-04-19T02:20:24.490Z,6.83
2023-04-19T02:23:29.884Z,6.58
2023-04-19T02:26:34.719Z,6.95
2023-04-19T02:29:39.606Z,5.22
2023-04-19T02:32:45.251Z,5.75
2023-04-19T02:35:51.195Z,6.12
2023-04-19T02:38:59.102Z,5.70
2023-04-19T02:42:04.599Z,5.03
2023-04-19T02:45:09.719Z,5.90
2023-04-19T02:48:15.224Z,5.92
2023-04-19T02:51:21.079Z,5.62
2023-04-19T02:54:26.633Z,6.53
2023-04-19T02:57:32.568Z,5.45
2023-04-19T03:00:33.296Z,6.40
2023-04-19T03:03:42.141Z,5.58
2023-04-19T03:06:49.246Z,5.75
2023-04-19T03:09:55.690Z,6.08
2023-04-19T03:13:01.827Z,6.67
2023-04-19T03:16:07.926Z,6.40
2023-04-19T03:19:14.053Z,5.67
2023-04-19T03:22:21.780Z,6.53
2023-04-19T03:25:27.345Z,6.25
2023-04-19T03:28:35.383Z,5.90
2023-04-19T03:31:53.006Z,6.58
2023-04-19T03:34:59.118Z,7.90
2023-04-19T03:38:06.645Z,6.00
2023-04-19T03:41:11.901Z,7.28
2023-04-19T03:44:18.878Z,6.62
2023-04-19T03:47:24.874Z,6.33
2023-04-19T03:50:31.104Z,5.62
2023-04-19T03:53:37.088Z,7.17
2023-04-19T03:56:43.399Z,5.87
2023-04-19T03:59:51.232Z,6.50
2023-04-19T04:02:57.326Z,5.47
2023-04-19T04:06:05.966Z,6.25
2023-04-19T04:09:11.231Z,5.45
2023-04-19T04:12:16.665Z,5.80
2023-04-19T04:15:24.842Z,6.40
2023-04-19T04:18:33.713Z,6.40
2023-04-19T04:21:40.777Z,7.55
2023-04-19T04:24:51.958Z,6.78
2023-04-19T04:28:01.614Z,7.45
2023-04-19T04:31:08.840Z,8.95
2023-04-19T04:34:16.949Z,7.90
2023-04-19T04:37:24.908Z,6.95
2023-04-19T04:40:31.465Z,7.55
2023-04-19T04:43:39.128Z,7.85
2023-04-19T04:46:37.803Z,7.45
2023-04-19T04:49:45.211Z,8.43
2023-04-19T04:52:50.009Z,9.73
2023-04-19T04:56:00.971Z,7.72
2023-04-19T04:59:06.759Z,8.03
2023-04-19T05:02:14.329Z,7.85
2023-04-19T05:05:20.539Z,7.47
2023-04-19T05:08:26.908Z,7.95
2023-04-19T05:11:34.674Z,10.45
2023-04-19T05:14:40.649Z,8.28
2023-04-19T05:17:45.953Z,8.30
2023-04-19T05:20:51.210Z,9.00
2023-04-19T05:24:00.202Z,8.03
2023-04-19T05:27:05.513Z,8.28
2023-04-19T05:30:12.239Z,8.05
2023-04-19T05:33:17.815Z,8.63
2023-04-19T05:36:23.615Z,8.05
2023-04-19T05:39:27.993Z,9.65
2023-04-19T05:42:33.031Z,6.97
2023-04-19T05:45:39.386Z,10.30
2023-04-19T05:48:43.866Z,9.58
2023-04-19T05:51:58.352Z,8.18
2023-04-19T05:55:08.711Z,9.18
2023-04-19T05:57:57.209Z,8.48
2023-04-19T06:00:49.754Z,8.20
2023-04-19T06:03:35.359Z,8.88
2023-04-19T06:06:30.495Z,7.70
2023-04-19T06:09:30.779Z,7.47
2023-04-19T06:12:38.265Z,6.87
2023-04-19T06:15:43.606Z,8.00
2023-04-19T06:18:49.504Z,6.80
2023-04-19T06:21:55.783Z,9.35
2023-04-19T06:25:02.399Z,8.80
2023-04-19T06:28:08.106Z,7.75
2023-04-19T06:31:13.659Z,8.00
2023-04-19T06:34:19.870Z,9.03
2023-04-19T06:37:26.557Z,8.03
2023-04-19T06:40:31.436Z,8.20
2023-04-19T06:43:37.366Z,7.87
2023-04-19T06:46:42.628Z,8.55
2023-04-19T06:49:48.301Z,7.87
2023-04-19T06:52:53.377Z,6.78
2023-04-19T06:56:01.632Z,8.15
2023-04-19T06:59:07.733Z,9.53
2023-04-19T07:02:12.813Z,8.85
2023-04-19T07:05:20.014Z,7.40
2023-04-19T07:08:27.890Z,6.78
2023-04-19T07:11:31.460Z,7.12
2023-04-19T07:14:36.607Z,7.92
2023-04-19T07:17:42.738Z,7.90
2023-04-19T07:20:43.162Z,6.97
2023-04-19T07:26:52.894Z,6.37
2023-04-19T07:29:57.135Z,7.75
2023-04-19T07:33:02.625Z,6.97
2023-04-19T07:36:08.011Z,6.10
2023-04-19T07:39:12.681Z,5.67
2023-04-19T07:42:17.535Z,6.58
2023-04-19T07:45:23.175Z,6.15
2023-04-19T07:48:28.856Z,7.83
2023-04-19T07:51:27.893Z,7.72
2023-04-19T07:54:23.060Z,5.67
2023-04-19T07:57:28.430Z,6.25
2023-04-19T08:00:29.490Z,6.28
2023-04-19T08:03:34.332Z,6.60
2023-04-19T08:06:40.320Z,5.10
2023-04-19T08:09:45.583Z,7.33
2023-04-19T08:19:05.485Z,5.90
2023-04-19T08:22:11.402Z,6.33
2023-04-19T08:25:16.821Z,6.15
2023-04-19T08:28:21.777Z,5.97
2023-04-19T08:31:28.265Z,5.80
2023-04-19T08:34:32.879Z,6.62
2023-04-19T08:37:38.449Z,6.05
2023-04-19T08:40:45.315Z,4.53
2023-04-19T08:43:51.145Z,6.20
2023-04-19T08:46:56.909Z,5.58
2023-04-19T08:53:23.725Z,5.70
2023-04-19T08:56:32.047Z,6.62
2023-04-19T08:59:24.290Z,5.50
2023-04-19T09:02:31.022Z,6.90
2023-04-19T09:05:36.450Z,6.30
2023-04-19T09:08:46.072Z,4.55
2023-04-19T09:11:51.717Z,5.47
2023-04-19T09:15:02.367Z,5.22
2023-04-19T09:18:18.036Z,4.62
2023-04-19T09:21:23.544Z,5.20
2023-04-19T09:24:22.449Z,5.10
2023-04-19T09:27:08.248Z,4.85
2023-04-19T09:30:04.281Z,6.28
2023-04-19T09:32:55.393Z,4.70
2023-04-19T09:35:56.269Z,5.17
2023-04-19T09:42:09.078Z,5.87
2023-04-19T09:45:29.242Z,6.15
2023-04-19T09:48:21.626Z,6.62
2023-04-19T09:51:26.881Z,5.78
2023-04-19T09:54:33.887Z,4.17
2023-04-19T09:57:38.898Z,5.83
2023-04-19T10:00:50.048Z,5.53
2023-04-19T10:03:50.955Z,5.25
2023-04-19T10:10:18.781Z,5.53
2023-04-19T10:16:04.836Z,5.85
2023-04-19T10:22:11.188Z,4.65
2023-04-19T10:25:24.427Z,4.78
2023-04-19T10:28:32.076Z,5.08
2023-04-19T10:31:38.817Z,5.00
2023-04-19T10:34:54.107Z,7.53
2023-04-19T10:38:20.239Z,5.03
2023-04-19T10:41:26.944Z,5.08
2023-04-19T10:44:32.478Z,5.62
2023-04-19T10:51:24.162Z,5.05
2023-04-19T10:54:52.441Z,5.58
2023-04-19T10:58:21.922Z,5.67
2023-04-19T11:01:50.427Z,5.47
2023-04-19T11:05:06.960Z,4.90
2023-04-19T11:08:12.663Z,7.12
2023-04-19T11:11:19.957Z,4.67
2023-04-19T11:14:25.976Z,6.35
2023-04-19T11:17:39.028Z,5.28
2023-04-19T11:20:43.978Z,5.60
2023-04-19T11:23:49.898Z,5.67
2023-04-19T11:26:57.876Z,5.87
2023-04-19T11:30:03.619Z,5.20
2023-04-19T11:33:09.753Z,4.87
2023-04-19T11:36:15.572Z,5.50
2023-04-19T11:39:21.555Z,5.22
2023-04-19T11:42:34.234Z,5.55
2023-04-19T11:45:43.097Z,4.75
2023-04-19T11:48:48.602Z,5.62
2023-04-19T11:51:57.197Z,6.72
2023-04-19T11:55:02.630Z,6.70
2023-04-19T11:58:08.068Z,4.65
2023-04-19T12:01:20.457Z,5.62
2023-04-19T12:04:30.085Z,6.55
2023-04-19T12:07:36.971Z,5.53
2023-04-19T12:10:42.889Z,6.22
2023-04-19T12:13:49.104Z,6.53
2023-04-19T12:16:54.841Z,6.37
2023-04-19T12:20:01.046Z,6.80
2023-04-19T12:23:06.007Z,6.33
2023-04-19T12:26:12.305Z,6.65
2023-04-19T12:29:18.090Z,6.42
2023-04-19T12:32:25.411Z,5.87
2023-04-19T12:35:31.756Z,6.40
2023-04-19T12:38:36.960Z,5.80
2023-04-19T12:41:42.077Z,6.15
2023-04-19T12:44:47.039Z,6.58
2023-04-19T12:47:54.050Z,6.60
2023-04-19T12:50:59.895Z,6.80
2023-04-19T12:54:05.558Z,6.37
2023-04-19T12:57:09.721Z,6.50
2023-04-19T13:00:16.284Z,6.35
2023-04-19T13:03:22.408Z,6.70
2023-04-19T13:06:28.284Z,8.45
2023-04-19T13:09:34.612Z,7.67
2023-04-19T13:12:40.172Z,7.80
2023-04-19T13:15:45.786Z,7.78
2023-04-19T13:18:52.891Z,7.17
2023-04-19T13:21:59.309Z,6.60
2023-04-19T13:25:05.057Z,7.42
2023-04-19T13:28:11.117Z,7.33
2023-04-19T13:31:16.237Z,7.65
2023-04-19T13:34:21.050Z,7.78
2023-04-19T13:37:26.155Z,7.05
2023-04-19T13:40:32.334Z,8.35
2023-04-19T13:43:37.307Z,7.90
2023-04-19T13:46:42.309Z,6.90
2023-04-19T13:49:47.022Z,7.83
2023-04-19T13:52:52.844Z,7.20
2023-04-19T13:55:58.673Z,8.18
2023-04-19T13:59:04.452Z,7.42
2023-04-19T14:02:09.696Z,8.38
2023-04-19T14:05:15.451Z,7.83
2023-04-19T14:08:20.460Z,7.72
2023-04-19T14:11:25.347Z,7.33
2023-04-19T14:14:32.006Z,6.97
2023-04-19T14:17:37.969Z,7.15
2023-04-19T14:20:43.660Z,6.97
2023-04-19T14:23:49.082Z,6.50
2023-04-19T14:27:07.210Z,7.08
2023-04-19T14:30:02.086Z,6.92
2023-04-19T14:33:08.625Z,6.53
2023-04-19T14:36:14.970Z,6.95
2023-04-19T14:39:23.155Z,6.92
2023-04-19T14:42:30.976Z,7.65
2023-04-19T14:45:36.641Z,7.55
2023-04-19T14:48:41.896Z,7.37
2023-04-19T14:51:49.855Z,8.85
2023-04-19T14:54:55.150Z,8.90
2023-04-19T14:58:01.717Z,9.95
2023-04-19T15:01:06.742Z,10.48
2023-04-19T15:04:13.597Z,12.68
2023-04-19T15:07:19.699Z,11.93
2023-04-19T15:10:25.845Z,12.37
2023-04-19T15:13:32.863Z,14.55
2023-04-19T15:16:40.350Z,13.25
2023-04-19T15:19:45.199Z,15.35
2023-04-19T15:22:50.733Z,13.15
2023-04-19T15:25:56.870Z,12.40
2023-04-19T15:29:03.596Z,12.78
2023-04-19T15:32:09.742Z,10.10
2023-04-19T15:35:16.332Z,9.25
2023-04-19T15:38:21.939Z,9.93
2023-04-19T15:41:27.927Z,10.25
2023-04-19T15:44:33.803Z,9.68
2023-04-19T15:47:39.290Z,9.35
2023-04-19T15:50:45.166Z,10.23
2023-04-19T15:53:50.897Z,10.48
2023-04-19T15:56:57.498Z,9.45
2023-04-19T16:00:03.722Z,9.23
2023-04-19T16:03:11.269Z,9.95
2023-04-19T16:06:18.154Z,9.65
2023-04-19T16:09:23.569Z,10.23
2023-04-19T16:12:29.309Z,9.10
2023-04-19T16:15:34.649Z,8.53
2023-04-19T16:18:40.205Z,9.68
2023-04-19T16:21:46.333Z,9.85
2023-04-19T16:24:53.711Z,9.25
2023-04-19T16:28:01.282Z,8.25
2023-04-19T16:31:08.141Z,9.60
2023-04-19T16:34:14.685Z,8.70
2023-04-19T16:37:20.388Z,9.08
2023-04-19T16:40:26.028Z,8.13
2023-04-19T16:43:32.240Z,8.08
2023-04-19T16:46:37.546Z,7.97
2023-04-19T16:49:44.529Z,7.65
2023-04-19T16:52:50.179Z,8.63
2023-04-19T16:55:56.646Z,9.00
2023-04-19T16:59:05.736Z,8.55
2023-04-19T17:02:14.767Z,8.13
2023-04-19T17:05:22.823Z,8.00
2023-04-19T17:08:28.729Z,9.05
2023-04-19T17:11:33.906Z,7.97
2023-04-19T17:14:26.222Z,8.80
2023-04-19T17:17:33.147Z,7.92
2023-04-19T17:20:39.443Z,8.55
2023-04-19T17:23:45.549Z,8.40
2023-04-19T17:26:51.844Z,8.05
2023-04-19T17:29:58.596Z,9.98
2023-04-19T17:33:06.114Z,8.78
2023-04-19T17:36:28.422Z,9.80
2023-04-19T17:39:35.129Z,9.00
2023-04-19T17:42:33.873Z,8.33
2023-04-19T17:45:28.467Z,8.75
2023-04-19T17:48:32.889Z,9.25
2023-04-19T17:51:41.760Z,8.80
2023-04-19T17:54:44.048Z,8.85
2023-04-19T17:57:52.639Z,8.73
2023-04-19T18:01:00.835Z,8.80
2023-04-19T18:04:06.717Z,9.33
2023-04-19T18:07:13.540Z,8.70
2023-04-19T18:10:24.680Z,9.35
2023-04-19T18:13:31.804Z,9.23
2023-04-19T18:16:37.379Z,9.35
2023-04-19T18:19:35.619Z,7.83
2023-04-19T18:22:40.708Z,7.97
2023-04-19T18:25:46.680Z,8.70
2023-04-19T18:28:54.032Z,8.88
2023-04-19T18:31:52.276Z,8.55
2023-04-19T18:34:45.820Z,7.87
2023-04-19T18:37:50.961Z,9.08
2023-04-19T18:40:57.731Z,8.78
2023-04-19T18:44:25.797Z,9.10
2023-04-19T18:47:10.878Z,9.85
2023-04-19T18:50:19.071Z,8.30
2023-04-19T18:53:23.250Z,8.05
2023-04-19T18:57:03.771Z,9.10
2023-04-19T18:59:35.811Z,9.33
2023-04-19T19:02:44.006Z,9.40
2023-04-19T19:05:50.072Z,9.10
2023-04-19T19:08:57.890Z,9.28
2023-04-19T19:12:03.612Z,9.48
2023-04-19T19:15:08.673Z,10.88
2023-04-19T19:18:14.975Z,8.78
2023-04-19T19:21:20.650Z,8.85
2023-04-19T19:24:26.523Z,9.23
2023-04-19T19:27:25.320Z,8.18
2023-04-19T19:30:32.138Z,7.60
2023-04-19T19:33:39.964Z,9.03
2023-04-19T19:36:44.192Z,8.28
2023-04-19T19:39:52.219Z,8.50
2023-04-19T19:42:57.803Z,8.63
2023-04-19T19:46:03.079Z,9.13
2023-04-19T19:49:12.614Z,8.93
2023-04-19T19:52:15.238Z,8.83
2023-04-19T19:55:20.807Z,8.38
2023-04-19T19:58:46.271Z,8.28
2023-04-19T20:01:32.430Z,7.87
2023-04-19T20:04:38.131Z,8.88
2023-04-19T20:10:49.565Z,8.50
2023-04-19T20:13:55.099Z,9.50
2023-04-19T20:17:00.303Z,8.88
2023-04-19T20:20:06.923Z,8.00
2023-04-19T20:23:05.237Z,8.45
2023-04-19T20:25:58.122Z,8.25
2023-04-19T20:29:02.555Z,9.48
2023-04-19T20:32:07.378Z,9.25
2023-04-19T20:35:16.735Z,8.40
2023-04-19T20:38:22.616Z,8.45
2023-04-19T20:41:29.195Z,8.85
2023-04-19T20:44:34.638Z,9.18
2023-04-19T20:47:40.264Z,7.35
2023-04-19T20:50:46.338Z,8.35
2023-04-19T20:53:53.084Z,8.53
2023-04-19T20:56:58.985Z,9.80
2023-04-19T21:00:04.850Z,10.08
2023-04-19T21:03:10.291Z,9.80
2023-04-19T21:06:15.466Z,9.83
2023-04-19T21:09:20.241Z,9.28
2023-04-19T21:12:24.906Z,8.93
2023-04-19T21:15:30.059Z,8.83
2023-04-19T21:18:36.776Z,9.10
2023-04-19T21:21:41.843Z,8.60
2023-04-19T21:24:47.151Z,9.25
2023-04-19T21:27:52.220Z,9.65
2023-04-19T21:30:58.622Z,8.95
2023-04-19T21:34:05.339Z,10.55
2023-04-19T21:37:11.061Z,8.80
2023-04-19T21:40:16.030Z,8.60
2023-04-19T21:43:20.804Z,9.40
2023-04-19T21:46:26.032Z,8.93
2023-04-19T21:49:31.673Z,8.70
2023-04-19T21:52:35.739Z,9.35
2023-04-19T21:55:41.745Z,8.78
2023-04-19T21:58:47.735Z,10.60
2023-04-19T22:01:54.271Z,8.40
2023-04-19T22:05:00.680Z,9.40
2023-04-19T22:07:59.857Z,8.18
2023-04-19T22:11:07.237Z,9.63
2023-04-19T22:14:11.740Z,9.78
2023-04-19T22:17:16.573Z,9.75
2023-04-19T22:20:24.290Z,9.00
2023-04-19T22:23:30.485Z,9.95
2023-04-19T22:26:35.625Z,9.68
2023-04-19T22:29:43.024Z,9.55
2023-04-19T22:32:48.832Z,10.13
2023-04-19T22:35:54.628Z,9.40
2023-04-19T22:38:53.945Z,8.20
2023-04-19T22:42:00.131Z,8.88
2023-04-19T22:45:05.592Z,8.88
2023-04-19T22:48:11.196Z,9.83
2023-04-19T22:51:16.175Z,8.28
2023-04-19T22:54:22.788Z,8.75
2023-04-19T22:57:21.994Z,10.00
2023-04-19T23:00:28.212Z,10.03
2023-04-19T23:03:34.665Z,9.80
2023-04-19T23:06:41.246Z,9.43
2023-04-19T23:09:39.702Z,8.40
2023-04-19T23:12:26.097Z,7.58
2023-04-19T23:15:20.098Z,9.45
2023-04-19T23:18:06.722Z,8.28
2023-04-19T23:20:58.724Z,9.55
2023-04-19T23:23:45.596Z,8.05
2023-04-19T23:26:38.545Z,8.05
2023-04-19T23:29:43.658Z,7.60
2023-04-19T23:32:49.670Z,9.15
2023-04-19T23:35:54.679Z,8.20
2023-04-19T23:38:53.444Z,9.18
2023-04-19T23:41:46.272Z,9.73
2023-04-19T23:44:52.709Z,10.00
2023-04-19T23:47:59.366Z,7.78
2023-04-19T23:50:58.566Z,9.40
2023-04-19T23:54:04.818Z,10.35
2023-04-19T23:57:10.353Z,8.53
